NOZ1JG ENGM-LFMN
Flight info
| Callsign | NOZ1JG |
|---|---|
| Flight time | 2h 46m |
| Altitude | 38000 |
| Route | VIPPA DCT NIROD DCT LUTIR DCT MALYK DCT ISMEF DCT MISGO DCT LIMGO/N0443F390 DCT SUTAL DCT GTQ DCT POGOL DCT LASAT DCT MOROK DCT GILIR DCT GEVEA/N0437F370 DCT KOGAS DCT MEDAM/N0396F290 DCT VEVAR |
| Aircraft | B738/M-SADE3GHIJ1LRWXY/LB1 |
Departure
| Time | 2026-05-05 13:03 |
|---|---|
| Airport | Oslo-Gardermoen International Airport (ENGM) |
Arrival
| Time | 2026-05-05 15:49 |
|---|---|
| Airport | Nice-Côte d'Azur Airport (LFMN) |
| Time | Latitude | Longitude | Altitude | Speed | Heading |
|---|---|---|---|---|---|
| 2026-05-05 12:24 | 60.19586 | 11.09276 | 684 ft | 0 kts | 196° |
| 2026-05-05 12:53 | 60.19597 | 11.09283 | 679 ft | 4 kts | 196° |
| 2026-05-05 12:54 | 60.19628 | 11.09301 | 682 ft | 1 kts | 196° |
| 2026-05-05 12:57 | 60.19627 | 11.09299 | 684 ft | 1 kts | 202° |
| 2026-05-05 12:57 | 60.19628 | 11.09285 | 684 ft | 1 kts | 288° |
| 2026-05-05 12:57 | 60.19653 | 11.09262 | 682 ft | 8 kts | 336° |
| 2026-05-05 12:57 | 60.19710 | 11.09167 | 682 ft | 12 kts | 303° |
| 2026-05-05 12:58 | 60.19738 | 11.09004 | 679 ft | 12 kts | 286° |
| 2026-05-05 12:58 | 60.19763 | 11.08829 | 677 ft | 13 kts | 286° |
| 2026-05-05 12:58 | 60.19757 | 11.08670 | 676 ft | 12 kts | 219° |
| 2026-05-05 12:58 | 60.19662 | 11.08607 | 677 ft | 19 kts | 196° |
| 2026-05-05 12:59 | 60.19510 | 11.08520 | 677 ft | 25 kts | 196° |
| 2026-05-05 12:59 | 60.19346 | 11.08424 | 674 ft | 24 kts | 195° |
| 2026-05-05 12:59 | 60.19193 | 11.08337 | 673 ft | 23 kts | 196° |
| 2026-05-05 13:00 | 60.18899 | 11.08167 | 671 ft | 21 kts | 196° |
| 2026-05-05 13:00 | 60.18758 | 11.08086 | 670 ft | 21 kts | 196° |
| 2026-05-05 13:01 | 60.18543 | 11.07834 | 663 ft | 9 kts | 285° |
| 2026-05-05 13:01 | 60.18561 | 11.07707 | 664 ft | 10 kts | 286° |
| 2026-05-05 13:01 | 60.18580 | 11.07580 | 665 ft | 9 kts | 286° |
| 2026-05-05 13:01 | 60.18600 | 11.07462 | 665 ft | 8 kts | 304° |
| 2026-05-05 13:02 | 60.18633 | 11.07452 | 665 ft | 0 kts | 16° |
| 2026-05-05 13:03 | 60.18788 | 11.07540 | 667 ft | 57 kts | 16° |
| 2026-05-05 13:03 | 60.19405 | 11.07892 | 671 ft | 124 kts | 15° |
| 2026-05-05 13:03 | 60.20391 | 11.08481 | 864 ft | 158 kts | 13° |
| 2026-05-05 13:03 | 60.21442 | 11.09108 | 1664 ft | 158 kts | 12° |
| 2026-05-05 13:04 | 60.22523 | 11.09703 | 2428 ft | 164 kts | 10° |
| 2026-05-05 13:04 | 60.23709 | 11.10341 | 2889 ft | 193 kts | 9° |
| 2026-05-05 13:04 | 60.25093 | 11.11074 | 3193 ft | 215 kts | 10° |
| 2026-05-05 13:04 | 60.26591 | 11.11293 | 3761 ft | 216 kts | 348° |
| 2026-05-05 13:05 | 60.28095 | 11.10749 | 4470 ft | 222 kts | 340° |
| 2026-05-05 13:05 | 60.29296 | 11.09002 | 5351 ft | 216 kts | 300° |
| 2026-05-05 13:05 | 60.29714 | 11.06104 | 6187 ft | 218 kts | 280° |
| 2026-05-05 13:05 | 60.29979 | 11.03117 | 7033 ft | 218 kts | 281° |
| 2026-05-05 13:06 | 60.30277 | 11.00062 | 7806 ft | 223 kts | 282° |
| 2026-05-05 13:06 | 60.30605 | 10.96933 | 8289 ft | 241 kts | 282° |
| 2026-05-05 13:06 | 60.30981 | 10.93504 | 8907 ft | 252 kts | 283° |
| 2026-05-05 13:06 | 60.31364 | 10.90061 | 9820 ft | 254 kts | 282° |
| 2026-05-05 13:07 | 60.31754 | 10.86608 | 10715 ft | 251 kts | 282° |
| 2026-05-05 13:07 | 60.31996 | 10.83070 | 11280 ft | 265 kts | 266° |
| 2026-05-05 13:07 | 60.31386 | 10.79391 | 11475 ft | 294 kts | 238° |
| 2026-05-05 13:07 | 60.29836 | 10.76434 | 11679 ft | 324 kts | 217° |
| 2026-05-05 13:08 | 60.27874 | 10.73992 | 12212 ft | 335 kts | 215° |
| 2026-05-05 13:08 | 60.25858 | 10.71559 | 13015 ft | 339 kts | 214° |
| 2026-05-05 13:08 | 60.23830 | 10.69088 | 13849 ft | 342 kts | 215° |
| 2026-05-05 13:08 | 60.21802 | 10.66580 | 14729 ft | 341 kts | 216° |
| 2026-05-05 13:09 | 60.19819 | 10.64114 | 15719 ft | 339 kts | 217° |
| 2026-05-05 13:09 | 60.17780 | 10.61618 | 16648 ft | 341 kts | 214° |
| 2026-05-05 13:09 | 60.15610 | 10.59733 | 17513 ft | 349 kts | 205° |
| 2026-05-05 13:09 | 60.13223 | 10.58574 | 18344 ft | 357 kts | 199° |
| 2026-05-05 13:10 | 60.10764 | 10.57699 | 19057 ft | 359 kts | 199° |
| 2026-05-05 13:10 | 60.08259 | 10.56871 | 19771 ft | 361 kts | 199° |
| 2026-05-05 13:10 | 60.05777 | 10.56051 | 20422 ft | 363 kts | 200° |
| 2026-05-05 13:10 | 60.03283 | 10.55216 | 21065 ft | 364 kts | 201° |
| 2026-05-05 13:11 | 60.00800 | 10.54390 | 21835 ft | 361 kts | 203° |
| 2026-05-05 13:11 | 59.98307 | 10.53524 | 22407 ft | 366 kts | 204° |
| 2026-05-05 13:11 | 59.95784 | 10.52646 | 23031 ft | 369 kts | 204° |
| 2026-05-05 13:11 | 59.93258 | 10.51769 | 23649 ft | 370 kts | 205° |
| 2026-05-05 13:12 | 59.90704 | 10.50877 | 24106 ft | 374 kts | 204° |
| 2026-05-05 13:12 | 59.88164 | 10.50000 | 24543 ft | 378 kts | 204° |
| 2026-05-05 13:12 | 59.85561 | 10.49105 | 24986 ft | 381 kts | 204° |
| 2026-05-05 13:12 | 59.82942 | 10.48204 | 25417 ft | 384 kts | 204° |
| 2026-05-05 13:13 | 59.80297 | 10.47294 | 25824 ft | 387 kts | 203° |
| 2026-05-05 13:13 | 59.77634 | 10.46380 | 26218 ft | 391 kts | 203° |
| 2026-05-05 13:13 | 59.74943 | 10.45457 | 26495 ft | 394 kts | 202° |
| 2026-05-05 13:13 | 59.72220 | 10.44524 | 26832 ft | 400 kts | 202° |
| 2026-05-05 13:14 | 59.69486 | 10.43515 | 27176 ft | 379 kts | 210° |
| 2026-05-05 13:14 | 59.67827 | 10.42666 | 28196 ft | 372 kts | 202° |
| 2026-05-05 13:14 | 59.66562 | 10.42279 | 28707 ft | 373 kts | 200° |
| 2026-05-05 13:14 | 59.63969 | 10.41632 | 29097 ft | 378 kts | 200° |
| 2026-05-05 13:15 | 59.58646 | 10.39919 | 29249 ft | 397 kts | 201° |
| 2026-05-05 13:15 | 59.53065 | 10.37995 | 29409 ft | 416 kts | 201° |
| 2026-05-05 13:16 | 59.50181 | 10.37015 | 29648 ft | 421 kts | 201° |
| 2026-05-05 13:16 | 59.47324 | 10.36058 | 29941 ft | 422 kts | 200° |
| 2026-05-05 13:16 | 59.44427 | 10.35094 | 30366 ft | 421 kts | 200° |
| 2026-05-05 13:16 | 59.41548 | 10.34139 | 30805 ft | 419 kts | 200° |
| 2026-05-05 13:17 | 59.38671 | 10.33180 | 31183 ft | 419 kts | 199° |
| 2026-05-05 13:17 | 59.35795 | 10.32217 | 31520 ft | 420 kts | 199° |
| 2026-05-05 13:17 | 59.32921 | 10.31254 | 31866 ft | 420 kts | 199° |
| 2026-05-05 13:17 | 59.30038 | 10.30291 | 32234 ft | 420 kts | 199° |
| 2026-05-05 13:18 | 59.27156 | 10.29330 | 32573 ft | 420 kts | 199° |
| 2026-05-05 13:18 | 59.24279 | 10.28372 | 32932 ft | 420 kts | 199° |
| 2026-05-05 13:18 | 59.21402 | 10.27417 | 33324 ft | 419 kts | 199° |
| 2026-05-05 13:18 | 59.18528 | 10.26464 | 33598 ft | 419 kts | 199° |
| 2026-05-05 13:19 | 59.15642 | 10.25629 | 34019 ft | 420 kts | 194° |
| 2026-05-05 13:19 | 59.12714 | 10.25177 | 34307 ft | 423 kts | 193° |
| 2026-05-05 13:19 | 59.09765 | 10.24842 | 34490 ft | 426 kts | 192° |
| 2026-05-05 13:19 | 59.06798 | 10.24517 | 34714 ft | 428 kts | 192° |
| 2026-05-05 13:20 | 59.03827 | 10.24165 | 35006 ft | 427 kts | 192° |
| 2026-05-05 13:20 | 59.00870 | 10.23784 | 35294 ft | 426 kts | 192° |
| 2026-05-05 13:20 | 58.97907 | 10.23388 | 35536 ft | 427 kts | 192° |
| 2026-05-05 13:20 | 58.94959 | 10.22822 | 35727 ft | 423 kts | 198° |
| 2026-05-05 13:21 | 58.92131 | 10.21492 | 35945 ft | 414 kts | 207° |
| 2026-05-05 13:21 | 58.89444 | 10.19540 | 36162 ft | 412 kts | 208° |
| 2026-05-05 13:21 | 58.86770 | 10.17556 | 36401 ft | 412 kts | 207° |
| 2026-05-05 13:21 | 58.84078 | 10.15564 | 36580 ft | 415 kts | 207° |
| 2026-05-05 13:22 | 58.81374 | 10.13576 | 36734 ft | 417 kts | 207° |
| 2026-05-05 13:22 | 58.78656 | 10.11597 | 36982 ft | 417 kts | 207° |
| 2026-05-05 13:22 | 58.75972 | 10.09656 | 37210 ft | 418 kts | 207° |
| 2026-05-05 13:22 | 58.73273 | 10.07713 | 37398 ft | 419 kts | 206° |
| 2026-05-05 13:23 | 58.70536 | 10.05748 | 37578 ft | 420 kts | 206° |
| 2026-05-05 13:23 | 58.67796 | 10.03787 | 37794 ft | 421 kts | 206° |
| 2026-05-05 13:23 | 58.65047 | 10.01823 | 37951 ft | 422 kts | 206° |
| 2026-05-05 13:23 | 58.62284 | 9.99850 | 37909 ft | 425 kts | 206° |
| 2026-05-05 13:24 | 58.56763 | 9.95924 | 37945 ft | 422 kts | 206° |
| 2026-05-05 13:24 | 58.51272 | 9.92033 | 37954 ft | 418 kts | 206° |
| 2026-05-05 13:25 | 58.45826 | 9.88181 | 37952 ft | 416 kts | 206° |
| 2026-05-05 13:25 | 58.40431 | 9.84378 | 37959 ft | 415 kts | 206° |
| 2026-05-05 13:26 | 58.35246 | 9.80733 | 37960 ft | 415 kts | 206° |
| 2026-05-05 13:26 | 58.29826 | 9.76936 | 37964 ft | 416 kts | 206° |
| 2026-05-05 13:27 | 58.24391 | 9.73141 | 37964 ft | 417 kts | 206° |
| 2026-05-05 13:27 | 58.18930 | 9.69340 | 37970 ft | 419 kts | 206° |
| 2026-05-05 13:28 | 58.13443 | 9.65532 | 37967 ft | 421 kts | 206° |
| 2026-05-05 13:28 | 58.08868 | 9.62371 | 37952 ft | 422 kts | 205° |
| 2026-05-05 13:29 | 58.03165 | 9.59412 | 37973 ft | 428 kts | 199° |
| 2026-05-05 13:29 | 57.97334 | 9.57008 | 37969 ft | 430 kts | 198° |
| 2026-05-05 13:30 | 57.91481 | 9.54598 | 37970 ft | 430 kts | 198° |
| 2026-05-05 13:30 | 57.85625 | 9.52134 | 37969 ft | 430 kts | 199° |
| 2026-05-05 13:31 | 57.79830 | 9.49671 | 37965 ft | 429 kts | 199° |
| 2026-05-05 13:31 | 57.74009 | 9.47197 | 37970 ft | 428 kts | 199° |
| 2026-05-05 13:32 | 57.68200 | 9.44735 | 37975 ft | 428 kts | 199° |
| 2026-05-05 13:32 | 57.62401 | 9.42286 | 37975 ft | 427 kts | 199° |
| 2026-05-05 13:33 | 57.56597 | 9.39844 | 37934 ft | 426 kts | 198° |
| 2026-05-05 13:33 | 57.50818 | 9.37421 | 37964 ft | 425 kts | 198° |
| 2026-05-05 13:34 | 57.45044 | 9.35007 | 37981 ft | 425 kts | 198° |
| 2026-05-05 13:34 | 57.39271 | 9.32601 | 37980 ft | 425 kts | 198° |
| 2026-05-05 13:35 | 57.33530 | 9.30217 | 37981 ft | 425 kts | 198° |
| 2026-05-05 13:35 | 57.27758 | 9.27827 | 37978 ft | 425 kts | 198° |
| 2026-05-05 13:36 | 57.21988 | 9.25446 | 37982 ft | 425 kts | 198° |
| 2026-05-05 13:36 | 57.16211 | 9.23070 | 37983 ft | 425 kts | 198° |
| 2026-05-05 13:37 | 57.10427 | 9.20698 | 37983 ft | 426 kts | 198° |
| 2026-05-05 13:37 | 57.04645 | 9.18335 | 37980 ft | 426 kts | 198° |
| 2026-05-05 13:38 | 56.98855 | 9.15977 | 37975 ft | 426 kts | 198° |
| 2026-05-05 13:38 | 56.93071 | 9.13628 | 37982 ft | 426 kts | 198° |
| 2026-05-05 13:39 | 56.87290 | 9.11288 | 37983 ft | 426 kts | 198° |
| 2026-05-05 13:39 | 56.81535 | 9.08965 | 37978 ft | 426 kts | 198° |
| 2026-05-05 13:40 | 56.75745 | 9.06636 | 37965 ft | 426 kts | 198° |
| 2026-05-05 13:40 | 56.69961 | 9.04317 | 37972 ft | 426 kts | 198° |
| 2026-05-05 13:41 | 56.64177 | 9.02005 | 37981 ft | 426 kts | 198° |
| 2026-05-05 13:41 | 56.58388 | 8.99698 | 37969 ft | 426 kts | 197° |
| 2026-05-05 13:42 | 56.52596 | 8.97396 | 37961 ft | 426 kts | 197° |
| 2026-05-05 13:42 | 56.46811 | 8.95106 | 37948 ft | 425 kts | 197° |
| 2026-05-05 13:43 | 56.41063 | 8.92838 | 37955 ft | 425 kts | 197° |
| 2026-05-05 13:43 | 56.35287 | 8.90564 | 37942 ft | 424 kts | 197° |
| 2026-05-05 13:44 | 56.29523 | 8.88303 | 37948 ft | 424 kts | 197° |
| 2026-05-05 13:44 | 56.23759 | 8.86049 | 37951 ft | 423 kts | 197° |
| 2026-05-05 13:45 | 56.18011 | 8.83807 | 37960 ft | 423 kts | 197° |
| 2026-05-05 13:45 | 56.12257 | 8.81571 | 37972 ft | 422 kts | 197° |
| 2026-05-05 13:46 | 56.06548 | 8.79358 | 37964 ft | 423 kts | 197° |
| 2026-05-05 13:46 | 56.00799 | 8.77136 | 37964 ft | 423 kts | 197° |
| 2026-05-05 13:47 | 55.95040 | 8.74918 | 37967 ft | 423 kts | 197° |
| 2026-05-05 13:47 | 55.89280 | 8.72706 | 37970 ft | 423 kts | 197° |
| 2026-05-05 13:48 | 55.83514 | 8.70498 | 37967 ft | 424 kts | 197° |
| 2026-05-05 13:48 | 55.77740 | 8.68294 | 37972 ft | 425 kts | 197° |
| 2026-05-05 13:49 | 55.71954 | 8.66092 | 37968 ft | 426 kts | 197° |
| 2026-05-05 13:49 | 55.66168 | 8.63897 | 37963 ft | 426 kts | 197° |
| 2026-05-05 13:50 | 55.60364 | 8.61702 | 37966 ft | 427 kts | 197° |
| 2026-05-05 13:50 | 55.54550 | 8.59510 | 37968 ft | 427 kts | 197° |
| 2026-05-05 13:51 | 55.48803 | 8.57349 | 37967 ft | 427 kts | 197° |
| 2026-05-05 13:51 | 55.43013 | 8.55178 | 37963 ft | 427 kts | 196° |
| 2026-05-05 13:52 | 55.37205 | 8.53008 | 37970 ft | 427 kts | 196° |
| 2026-05-05 13:52 | 55.31386 | 8.50840 | 37969 ft | 427 kts | 196° |
| 2026-05-05 13:53 | 55.25600 | 8.48690 | 37959 ft | 427 kts | 196° |
| 2026-05-05 13:53 | 55.19782 | 8.46534 | 37959 ft | 427 kts | 196° |
| 2026-05-05 13:54 | 55.13967 | 8.44387 | 37965 ft | 427 kts | 196° |
| 2026-05-05 13:54 | 55.08143 | 8.42241 | 37966 ft | 427 kts | 196° |
| 2026-05-05 13:55 | 55.02316 | 8.40139 | 37967 ft | 428 kts | 195° |
| 2026-05-05 13:55 | 54.96467 | 8.38103 | 37941 ft | 428 kts | 195° |
| 2026-05-05 13:56 | 54.90627 | 8.36079 | 37960 ft | 428 kts | 195° |
| 2026-05-05 13:56 | 54.84786 | 8.34053 | 37969 ft | 428 kts | 195° |
| 2026-05-05 13:57 | 54.78943 | 8.32026 | 37964 ft | 428 kts | 195° |
| 2026-05-05 13:57 | 54.73100 | 8.30005 | 37962 ft | 428 kts | 195° |
| 2026-05-05 13:58 | 54.67257 | 8.27989 | 37955 ft | 428 kts | 194° |
| 2026-05-05 13:58 | 54.61424 | 8.25983 | 37959 ft | 427 kts | 194° |
| 2026-05-05 13:59 | 54.53466 | 8.23255 | 37955 ft | 427 kts | 194° |
| 2026-05-05 14:00 | 54.46241 | 8.20788 | 37933 ft | 427 kts | 194° |
| 2026-05-05 14:00 | 54.39680 | 8.18556 | 37949 ft | 426 kts | 194° |
| 2026-05-05 14:01 | 54.33884 | 8.16590 | 37953 ft | 425 kts | 194° |
| 2026-05-05 14:01 | 54.28082 | 8.14627 | 37953 ft | 425 kts | 194° |
| 2026-05-05 14:02 | 54.22287 | 8.12672 | 37938 ft | 424 kts | 194° |
| 2026-05-05 14:02 | 54.16498 | 8.10726 | 37951 ft | 424 kts | 194° |
| 2026-05-05 14:03 | 54.10753 | 8.08799 | 37949 ft | 423 kts | 194° |
| 2026-05-05 14:03 | 54.04977 | 8.06867 | 37948 ft | 423 kts | 194° |
| 2026-05-05 14:04 | 53.99203 | 8.04942 | 37948 ft | 422 kts | 194° |
| 2026-05-05 14:04 | 53.93439 | 8.03025 | 37944 ft | 422 kts | 194° |
| 2026-05-05 14:05 | 53.87682 | 8.01116 | 37941 ft | 421 kts | 194° |
| 2026-05-05 14:05 | 53.81936 | 7.99216 | 37942 ft | 421 kts | 194° |
| 2026-05-05 14:06 | 53.76193 | 7.97322 | 37937 ft | 420 kts | 194° |
| 2026-05-05 14:06 | 53.70458 | 7.95436 | 37937 ft | 419 kts | 194° |
| 2026-05-05 14:07 | 53.64735 | 7.93560 | 37934 ft | 419 kts | 194° |
| 2026-05-05 14:07 | 53.59023 | 7.91692 | 37936 ft | 418 kts | 194° |
| 2026-05-05 14:08 | 53.53319 | 7.89831 | 37935 ft | 417 kts | 194° |
| 2026-05-05 14:08 | 53.47636 | 7.87983 | 37917 ft | 416 kts | 194° |
| 2026-05-05 14:09 | 53.41960 | 7.86142 | 37921 ft | 415 kts | 194° |
| 2026-05-05 14:09 | 53.36299 | 7.84311 | 37926 ft | 414 kts | 194° |
| 2026-05-05 14:10 | 53.30652 | 7.82489 | 37925 ft | 413 kts | 194° |
| 2026-05-05 14:10 | 53.25042 | 7.80683 | 37924 ft | 413 kts | 194° |
| 2026-05-05 14:11 | 53.19399 | 7.78872 | 37917 ft | 413 kts | 194° |
| 2026-05-05 14:11 | 53.13759 | 7.77067 | 37919 ft | 413 kts | 194° |
| 2026-05-05 14:12 | 53.08120 | 7.75266 | 37915 ft | 413 kts | 194° |
| 2026-05-05 14:12 | 53.02478 | 7.73469 | 37918 ft | 413 kts | 194° |
| 2026-05-05 14:13 | 52.96929 | 7.71140 | 37905 ft | 409 kts | 205° |
| 2026-05-05 14:13 | 52.91695 | 7.67410 | 37926 ft | 410 kts | 206° |
| 2026-05-05 14:14 | 52.86433 | 7.63669 | 37911 ft | 412 kts | 205° |
| 2026-05-05 14:14 | 52.81141 | 7.59966 | 37907 ft | 414 kts | 205° |
| 2026-05-05 14:15 | 52.75819 | 7.56268 | 37906 ft | 415 kts | 205° |
| 2026-05-05 14:15 | 52.70482 | 7.52571 | 37902 ft | 416 kts | 205° |
| 2026-05-05 14:16 | 52.65135 | 7.48875 | 37909 ft | 417 kts | 205° |
| 2026-05-05 14:16 | 52.60630 | 7.46039 | 37910 ft | 418 kts | 200° |
| 2026-05-05 14:17 | 52.55055 | 7.43267 | 37901 ft | 419 kts | 199° |
| 2026-05-05 14:17 | 52.49466 | 7.40575 | 37910 ft | 418 kts | 199° |
| 2026-05-05 14:18 | 52.43898 | 7.37846 | 37907 ft | 417 kts | 199° |
| 2026-05-05 14:18 | 52.38351 | 7.35100 | 37893 ft | 415 kts | 199° |
| 2026-05-05 14:19 | 52.32869 | 7.32381 | 37897 ft | 414 kts | 199° |
| 2026-05-05 14:19 | 52.27351 | 7.29650 | 37899 ft | 414 kts | 199° |
| 2026-05-05 14:20 | 52.21864 | 7.26942 | 37876 ft | 413 kts | 199° |
| 2026-05-05 14:20 | 52.16366 | 7.24237 | 37891 ft | 412 kts | 199° |
| 2026-05-05 14:21 | 52.10876 | 7.21543 | 37891 ft | 411 kts | 199° |
| 2026-05-05 14:21 | 52.05409 | 7.18867 | 37877 ft | 410 kts | 199° |
| 2026-05-05 14:22 | 51.99951 | 7.16202 | 37898 ft | 409 kts | 199° |
| 2026-05-05 14:22 | 51.94488 | 7.13540 | 37887 ft | 410 kts | 199° |
| 2026-05-05 14:23 | 51.89033 | 7.10890 | 37885 ft | 409 kts | 199° |
| 2026-05-05 14:23 | 51.83580 | 7.08248 | 37882 ft | 409 kts | 199° |
| 2026-05-05 14:24 | 51.78129 | 7.05614 | 37874 ft | 408 kts | 199° |
| 2026-05-05 14:24 | 51.72684 | 7.02989 | 37885 ft | 408 kts | 199° |
| 2026-05-05 14:25 | 51.67230 | 7.00365 | 37867 ft | 409 kts | 199° |
| 2026-05-05 14:25 | 51.61807 | 6.97763 | 37874 ft | 409 kts | 199° |
| 2026-05-05 14:26 | 51.56360 | 6.95156 | 37877 ft | 408 kts | 198° |
| 2026-05-05 14:26 | 51.50906 | 6.92552 | 37869 ft | 408 kts | 198° |
| 2026-05-05 14:27 | 51.45464 | 6.89959 | 37872 ft | 408 kts | 198° |
| 2026-05-05 14:27 | 51.40019 | 6.87404 | 37867 ft | 408 kts | 196° |
| 2026-05-05 14:28 | 51.34468 | 6.85387 | 37876 ft | 408 kts | 193° |
| 2026-05-05 14:28 | 51.28912 | 6.83515 | 37857 ft | 408 kts | 193° |
| 2026-05-05 14:29 | 51.23358 | 6.81628 | 37860 ft | 408 kts | 193° |
| 2026-05-05 14:29 | 51.17847 | 6.79735 | 37877 ft | 409 kts | 194° |
| 2026-05-05 14:30 | 51.12274 | 6.77812 | 37842 ft | 409 kts | 193° |
| 2026-05-05 14:30 | 51.06705 | 6.75894 | 37844 ft | 410 kts | 193° |
| 2026-05-05 14:31 | 51.01146 | 6.73984 | 37855 ft | 408 kts | 193° |
| 2026-05-05 14:31 | 50.95587 | 6.72079 | 37870 ft | 409 kts | 193° |
| 2026-05-05 14:32 | 50.90015 | 6.70174 | 37853 ft | 410 kts | 193° |
| 2026-05-05 14:32 | 50.84445 | 6.68274 | 37853 ft | 409 kts | 193° |
| 2026-05-05 14:33 | 50.78893 | 6.66386 | 37852 ft | 408 kts | 193° |
| 2026-05-05 14:33 | 50.73350 | 6.64505 | 37857 ft | 407 kts | 193° |
| 2026-05-05 14:34 | 50.67825 | 6.62634 | 37853 ft | 406 kts | 193° |
| 2026-05-05 14:34 | 50.62303 | 6.60769 | 37837 ft | 406 kts | 193° |
| 2026-05-05 14:35 | 50.56778 | 6.58908 | 37835 ft | 407 kts | 192° |
| 2026-05-05 14:35 | 50.51235 | 6.57044 | 37836 ft | 407 kts | 192° |
| 2026-05-05 14:36 | 50.45686 | 6.55184 | 37827 ft | 408 kts | 192° |
| 2026-05-05 14:36 | 50.40150 | 6.53332 | 37827 ft | 410 kts | 192° |
| 2026-05-05 14:37 | 50.34562 | 6.51467 | 37829 ft | 411 kts | 192° |
| 2026-05-05 14:37 | 50.28958 | 6.49602 | 37832 ft | 413 kts | 192° |
| 2026-05-05 14:38 | 50.23332 | 6.47734 | 37806 ft | 414 kts | 192° |
| 2026-05-05 14:38 | 50.17699 | 6.45867 | 37819 ft | 414 kts | 192° |
| 2026-05-05 14:39 | 50.12055 | 6.44002 | 37820 ft | 414 kts | 192° |
| 2026-05-05 14:39 | 50.06375 | 6.42129 | 38068 ft | 419 kts | 192° |
| 2026-05-05 14:40 | 50.03526 | 6.41191 | 38356 ft | 418 kts | 192° |
| 2026-05-05 14:40 | 50.00676 | 6.40255 | 38562 ft | 419 kts | 192° |
| 2026-05-05 14:40 | 49.94922 | 6.38367 | 38746 ft | 424 kts | 192° |
| 2026-05-05 14:41 | 49.92076 | 6.37435 | 38951 ft | 423 kts | 192° |
| 2026-05-05 14:41 | 49.89199 | 6.36494 | 39149 ft | 422 kts | 192° |
| 2026-05-05 14:41 | 49.86324 | 6.35554 | 39313 ft | 423 kts | 192° |
| 2026-05-05 14:41 | 49.83437 | 6.34612 | 39423 ft | 425 kts | 192° |
| 2026-05-05 14:42 | 49.77619 | 6.32716 | 39704 ft | 426 kts | 192° |
| 2026-05-05 14:42 | 49.74718 | 6.31773 | 39832 ft | 427 kts | 192° |
| 2026-05-05 14:42 | 49.71803 | 6.30826 | 39826 ft | 429 kts | 192° |
| 2026-05-05 14:43 | 49.65931 | 6.29256 | 39815 ft | 428 kts | 182° |
| 2026-05-05 14:43 | 49.60062 | 6.30492 | 39812 ft | 428 kts | 163° |
| 2026-05-05 14:44 | 49.54591 | 6.34016 | 39834 ft | 429 kts | 159° |
| 2026-05-05 14:44 | 49.49114 | 6.37651 | 39822 ft | 428 kts | 160° |
| 2026-05-05 14:45 | 49.43641 | 6.41230 | 39829 ft | 427 kts | 159° |
| 2026-05-05 14:45 | 49.38209 | 6.44930 | 39838 ft | 427 kts | 158° |
| 2026-05-05 14:46 | 49.32783 | 6.48631 | 39853 ft | 428 kts | 159° |
| 2026-05-05 14:46 | 49.27316 | 6.52334 | 39847 ft | 430 kts | 159° |
| 2026-05-05 14:47 | 49.21833 | 6.56031 | 39831 ft | 431 kts | 159° |
| 2026-05-05 14:47 | 49.16339 | 6.59726 | 39842 ft | 431 kts | 159° |
| 2026-05-05 14:48 | 49.10849 | 6.63410 | 39829 ft | 431 kts | 159° |
| 2026-05-05 14:48 | 49.05389 | 6.67067 | 39848 ft | 432 kts | 159° |
| 2026-05-05 14:49 | 48.99815 | 6.70473 | 39832 ft | 430 kts | 168° |
| 2026-05-05 14:49 | 48.93939 | 6.71560 | 39841 ft | 424 kts | 183° |
| 2026-05-05 14:50 | 48.88041 | 6.71268 | 39835 ft | 425 kts | 184° |
| 2026-05-05 14:50 | 48.82122 | 6.70967 | 39837 ft | 425 kts | 183° |
| 2026-05-05 14:51 | 48.76218 | 6.70713 | 39838 ft | 424 kts | 183° |
| 2026-05-05 14:51 | 48.70322 | 6.70481 | 39844 ft | 424 kts | 183° |
| 2026-05-05 14:52 | 48.64418 | 6.70252 | 39838 ft | 425 kts | 183° |
| 2026-05-05 14:52 | 48.58497 | 6.70022 | 39836 ft | 426 kts | 183° |
| 2026-05-05 14:53 | 48.52564 | 6.69791 | 39840 ft | 428 kts | 183° |
| 2026-05-05 14:53 | 48.46600 | 6.69559 | 39823 ft | 427 kts | 183° |
| 2026-05-05 14:54 | 48.40675 | 6.69331 | 39828 ft | 424 kts | 183° |
| 2026-05-05 14:54 | 48.34794 | 6.69107 | 39823 ft | 422 kts | 183° |
| 2026-05-05 14:55 | 48.28974 | 6.68890 | 39825 ft | 419 kts | 183° |
| 2026-05-05 14:55 | 48.23155 | 6.68672 | 39826 ft | 417 kts | 183° |
| 2026-05-05 14:56 | 48.17358 | 6.68455 | 39838 ft | 416 kts | 183° |
| 2026-05-05 14:56 | 48.11575 | 6.68239 | 39841 ft | 415 kts | 183° |
| 2026-05-05 14:57 | 48.05794 | 6.68024 | 39842 ft | 416 kts | 183° |
| 2026-05-05 14:57 | 48.00008 | 6.67641 | 39840 ft | 416 kts | 186° |
| 2026-05-05 14:58 | 47.94235 | 6.66826 | 39856 ft | 418 kts | 187° |
| 2026-05-05 14:58 | 47.88422 | 6.65965 | 39848 ft | 420 kts | 187° |
| 2026-05-05 14:59 | 47.82591 | 6.65145 | 39857 ft | 422 kts | 186° |
| 2026-05-05 14:59 | 47.76736 | 6.64353 | 39851 ft | 423 kts | 186° |
| 2026-05-05 15:00 | 47.71846 | 6.63699 | 39858 ft | 424 kts | 186° |
| 2026-05-05 15:00 | 47.65003 | 6.62788 | 39863 ft | 426 kts | 186° |
| 2026-05-05 15:01 | 47.59101 | 6.62004 | 39854 ft | 426 kts | 186° |
| 2026-05-05 15:01 | 47.53187 | 6.61220 | 39860 ft | 426 kts | 186° |
| 2026-05-05 15:02 | 47.47286 | 6.60438 | 39864 ft | 426 kts | 186° |
| 2026-05-05 15:02 | 47.41371 | 6.59658 | 39861 ft | 427 kts | 186° |
| 2026-05-05 15:03 | 47.35462 | 6.58880 | 39859 ft | 426 kts | 187° |
| 2026-05-05 15:03 | 47.29570 | 6.58106 | 39867 ft | 425 kts | 187° |
| 2026-05-05 15:04 | 47.23726 | 6.57339 | 39873 ft | 424 kts | 187° |
| 2026-05-05 15:04 | 47.17864 | 6.56572 | 39879 ft | 423 kts | 187° |
| 2026-05-05 15:05 | 47.09073 | 6.55424 | 39877 ft | 422 kts | 187° |
| 2026-05-05 15:06 | 47.03225 | 6.54663 | 39887 ft | 422 kts | 187° |
| 2026-05-05 15:06 | 46.97364 | 6.53902 | 39877 ft | 422 kts | 187° |
| 2026-05-05 15:07 | 46.92505 | 6.53272 | 39885 ft | 422 kts | 187° |
| 2026-05-05 15:07 | 46.86658 | 6.52516 | 39888 ft | 422 kts | 187° |
| 2026-05-05 15:08 | 46.80801 | 6.51760 | 39895 ft | 423 kts | 187° |
| 2026-05-05 15:08 | 46.74935 | 6.51004 | 39885 ft | 423 kts | 187° |
| 2026-05-05 15:09 | 46.69069 | 6.50250 | 39886 ft | 423 kts | 187° |
| 2026-05-05 15:09 | 46.63206 | 6.49498 | 39889 ft | 423 kts | 187° |
| 2026-05-05 15:10 | 46.57341 | 6.48748 | 39898 ft | 423 kts | 187° |
| 2026-05-05 15:10 | 46.51480 | 6.48000 | 39904 ft | 423 kts | 187° |
| 2026-05-05 15:11 | 46.45646 | 6.47256 | 39896 ft | 424 kts | 187° |
| 2026-05-05 15:11 | 46.39774 | 6.46510 | 39903 ft | 423 kts | 187° |
| 2026-05-05 15:12 | 46.33907 | 6.45766 | 39903 ft | 423 kts | 187° |
| 2026-05-05 15:12 | 46.28057 | 6.45025 | 39907 ft | 422 kts | 187° |
| 2026-05-05 15:13 | 46.22198 | 6.44285 | 39904 ft | 422 kts | 187° |
| 2026-05-05 15:13 | 46.16345 | 6.43548 | 39905 ft | 422 kts | 188° |
| 2026-05-05 15:14 | 46.10500 | 6.42812 | 39902 ft | 422 kts | 188° |
| 2026-05-05 15:14 | 46.04650 | 6.42078 | 39896 ft | 422 kts | 188° |
| 2026-05-05 15:15 | 45.98799 | 6.41347 | 39896 ft | 422 kts | 188° |
| 2026-05-05 15:15 | 45.92955 | 6.40616 | 39908 ft | 421 kts | 188° |
| 2026-05-05 15:16 | 45.87126 | 6.39888 | 39904 ft | 420 kts | 188° |
| 2026-05-05 15:16 | 45.81291 | 6.40221 | 39927 ft | 426 kts | 169° |
| 2026-05-05 15:17 | 45.75886 | 6.43879 | 39920 ft | 438 kts | 150° |
| 2026-05-05 15:17 | 45.70972 | 6.48964 | 39914 ft | 439 kts | 149° |
| 2026-05-05 15:18 | 45.66040 | 6.54085 | 39903 ft | 437 kts | 149° |
| 2026-05-05 15:18 | 45.61098 | 6.59132 | 39910 ft | 437 kts | 149° |
| 2026-05-05 15:19 | 45.56133 | 6.64156 | 39878 ft | 438 kts | 150° |
| 2026-05-05 15:19 | 45.51158 | 6.69172 | 39904 ft | 438 kts | 150° |
| 2026-05-05 15:20 | 45.47659 | 6.72695 | 39923 ft | 439 kts | 150° |
| 2026-05-05 15:20 | 45.42956 | 6.77424 | 39911 ft | 440 kts | 149° |
| 2026-05-05 15:21 | 45.37966 | 6.82432 | 39922 ft | 441 kts | 150° |
| 2026-05-05 15:21 | 45.32943 | 6.87464 | 39943 ft | 442 kts | 150° |
| 2026-05-05 15:21 | 45.30417 | 6.89987 | 39667 ft | 448 kts | 150° |
| 2026-05-05 15:22 | 45.27792 | 6.92228 | 39211 ft | 442 kts | 160° |
| 2026-05-05 15:22 | 45.24957 | 6.93823 | 38699 ft | 434 kts | 168° |
| 2026-05-05 15:22 | 45.22044 | 6.94811 | 38020 ft | 427 kts | 178° |
| 2026-05-05 15:22 | 45.19121 | 6.95272 | 37462 ft | 420 kts | 179° |
| 2026-05-05 15:23 | 45.16231 | 6.95694 | 36906 ft | 416 kts | 179° |
| 2026-05-05 15:23 | 45.13370 | 6.96111 | 36475 ft | 410 kts | 180° |
| 2026-05-05 15:23 | 45.10554 | 6.96531 | 36138 ft | 403 kts | 180° |
| 2026-05-05 15:23 | 45.07776 | 6.96956 | 35683 ft | 399 kts | 180° |
| 2026-05-05 15:24 | 45.05036 | 6.97382 | 35278 ft | 395 kts | 180° |
| 2026-05-05 15:24 | 45.02316 | 6.97807 | 34872 ft | 391 kts | 180° |
| 2026-05-05 15:24 | 44.99625 | 6.98230 | 34476 ft | 387 kts | 180° |
| 2026-05-05 15:24 | 44.96964 | 6.98648 | 34051 ft | 384 kts | 181° |
| 2026-05-05 15:25 | 44.94277 | 6.99061 | 33676 ft | 393 kts | 181° |
| 2026-05-05 15:25 | 44.91556 | 6.99481 | 33166 ft | 403 kts | 181° |
| 2026-05-05 15:25 | 44.88724 | 6.99927 | 32759 ft | 403 kts | 181° |
| 2026-05-05 15:25 | 44.85977 | 7.00363 | 32327 ft | 401 kts | 181° |
| 2026-05-05 15:26 | 44.83220 | 7.00798 | 31941 ft | 397 kts | 181° |
| 2026-05-05 15:26 | 44.80477 | 7.01232 | 31528 ft | 395 kts | 181° |
| 2026-05-05 15:26 | 44.77762 | 7.01735 | 31136 ft | 393 kts | 179° |
| 2026-05-05 15:26 | 44.75068 | 7.02360 | 30738 ft | 391 kts | 177° |
| 2026-05-05 15:27 | 44.72393 | 7.03027 | 30336 ft | 390 kts | 178° |
| 2026-05-05 15:27 | 44.69728 | 7.03694 | 29902 ft | 389 kts | 178° |
| 2026-05-05 15:27 | 44.67063 | 7.04350 | 29455 ft | 387 kts | 178° |
| 2026-05-05 15:27 | 44.64415 | 7.04994 | 28985 ft | 385 kts | 178° |
| 2026-05-05 15:28 | 44.61784 | 7.05633 | 28570 ft | 382 kts | 178° |
| 2026-05-05 15:28 | 44.59166 | 7.06250 | 28098 ft | 380 kts | 179° |
| 2026-05-05 15:28 | 44.56564 | 7.06815 | 27715 ft | 377 kts | 178° |
| 2026-05-05 15:28 | 44.53979 | 7.07428 | 27283 ft | 377 kts | 178° |
| 2026-05-05 15:29 | 44.51398 | 7.08052 | 26845 ft | 375 kts | 178° |
| 2026-05-05 15:29 | 44.48839 | 7.08673 | 26474 ft | 371 kts | 178° |
| 2026-05-05 15:29 | 44.46301 | 7.09284 | 25917 ft | 369 kts | 177° |
| 2026-05-05 15:29 | 44.43778 | 7.09879 | 25304 ft | 368 kts | 177° |
| 2026-05-05 15:30 | 44.41260 | 7.10469 | 24732 ft | 367 kts | 177° |
| 2026-05-05 15:30 | 44.38733 | 7.11062 | 24127 ft | 368 kts | 177° |
| 2026-05-05 15:30 | 44.36206 | 7.11656 | 23567 ft | 368 kts | 177° |
| 2026-05-05 15:30 | 44.33679 | 7.12250 | 22885 ft | 368 kts | 176° |
| 2026-05-05 15:31 | 44.31161 | 7.12841 | 22196 ft | 363 kts | 176° |
| 2026-05-05 15:31 | 44.28703 | 7.13421 | 21510 ft | 354 kts | 176° |
| 2026-05-05 15:31 | 44.26335 | 7.13977 | 20893 ft | 345 kts | 176° |
| 2026-05-05 15:31 | 44.23991 | 7.14525 | 20286 ft | 339 kts | 176° |
| 2026-05-05 15:32 | 44.21681 | 7.15084 | 19625 ft | 334 kts | 174° |
| 2026-05-05 15:32 | 44.19463 | 7.16049 | 19053 ft | 336 kts | 165° |
| 2026-05-05 15:32 | 44.17311 | 7.17313 | 18503 ft | 333 kts | 162° |
| 2026-05-05 15:32 | 44.15212 | 7.18612 | 18023 ft | 329 kts | 162° |
| 2026-05-05 15:33 | 44.13094 | 7.19913 | 17452 ft | 335 kts | 162° |
| 2026-05-05 15:33 | 44.10960 | 7.21202 | 16948 ft | 333 kts | 162° |
| 2026-05-05 15:33 | 44.08842 | 7.22476 | 16403 ft | 331 kts | 162° |
| 2026-05-05 15:33 | 44.06728 | 7.23739 | 16029 ft | 331 kts | 162° |
| 2026-05-05 15:34 | 44.04605 | 7.24989 | 15656 ft | 332 kts | 162° |
| 2026-05-05 15:34 | 44.02471 | 7.26235 | 15273 ft | 334 kts | 162° |
| 2026-05-05 15:34 | 44.00340 | 7.27480 | 14879 ft | 331 kts | 162° |
| 2026-05-05 15:34 | 43.98229 | 7.28715 | 14522 ft | 327 kts | 161° |
| 2026-05-05 15:35 | 43.96143 | 7.29936 | 14155 ft | 323 kts | 162° |
| 2026-05-05 15:35 | 43.94085 | 7.31136 | 13821 ft | 321 kts | 162° |
| 2026-05-05 15:35 | 43.92028 | 7.32333 | 13395 ft | 319 kts | 161° |
| 2026-05-05 15:35 | 43.90012 | 7.33606 | 13013 ft | 317 kts | 159° |
| 2026-05-05 15:36 | 43.88031 | 7.34930 | 12585 ft | 317 kts | 158° |
| 2026-05-05 15:36 | 43.86071 | 7.36248 | 12112 ft | 318 kts | 158° |
| 2026-05-05 15:36 | 43.84055 | 7.37599 | 11681 ft | 316 kts | 158° |
| 2026-05-05 15:36 | 43.82103 | 7.38897 | 11294 ft | 315 kts | 158° |
| 2026-05-05 15:37 | 43.80135 | 7.40195 | 10907 ft | 313 kts | 158° |
| 2026-05-05 15:37 | 43.78173 | 7.41475 | 10591 ft | 309 kts | 158° |
| 2026-05-05 15:37 | 43.76257 | 7.42684 | 10514 ft | 296 kts | 163° |
| 2026-05-05 15:37 | 43.74291 | 7.43065 | 10413 ft | 279 kts | 189° |
| 2026-05-05 15:38 | 43.72474 | 7.42411 | 10315 ft | 266 kts | 201° |
| 2026-05-05 15:38 | 43.70734 | 7.41528 | 9992 ft | 266 kts | 202° |
| 2026-05-05 15:38 | 43.69005 | 7.40610 | 9633 ft | 267 kts | 203° |
| 2026-05-05 15:38 | 43.67280 | 7.39689 | 9332 ft | 265 kts | 203° |
| 2026-05-05 15:39 | 43.65566 | 7.38767 | 9021 ft | 263 kts | 203° |
| 2026-05-05 15:39 | 43.63865 | 7.37848 | 8709 ft | 262 kts | 203° |
| 2026-05-05 15:39 | 43.62172 | 7.36932 | 8407 ft | 261 kts | 203° |
| 2026-05-05 15:39 | 43.60613 | 7.35705 | 8085 ft | 258 kts | 221° |
| 2026-05-05 15:40 | 43.59297 | 7.34039 | 7819 ft | 255 kts | 224° |
| 2026-05-05 15:40 | 43.58023 | 7.32355 | 7569 ft | 252 kts | 225° |
| 2026-05-05 15:40 | 43.56762 | 7.30679 | 7256 ft | 252 kts | 225° |
| 2026-05-05 15:40 | 43.55505 | 7.29001 | 6958 ft | 252 kts | 225° |
| 2026-05-05 15:41 | 43.54253 | 7.27321 | 6673 ft | 250 kts | 225° |
| 2026-05-05 15:41 | 43.53007 | 7.25645 | 6401 ft | 250 kts | 225° |
| 2026-05-05 15:41 | 43.51766 | 7.23969 | 6212 ft | 249 kts | 225° |
| 2026-05-05 15:41 | 43.50532 | 7.22299 | 5885 ft | 249 kts | 225° |
| 2026-05-05 15:42 | 43.49312 | 7.20640 | 5727 ft | 242 kts | 225° |
| 2026-05-05 15:42 | 43.48140 | 7.19045 | 5667 ft | 231 kts | 225° |
| 2026-05-05 15:42 | 43.47022 | 7.17518 | 5426 ft | 223 kts | 225° |
| 2026-05-05 15:42 | 43.45914 | 7.16002 | 4996 ft | 224 kts | 225° |
| 2026-05-05 15:43 | 43.44859 | 7.14454 | 4750 ft | 222 kts | 234° |
| 2026-05-05 15:43 | 43.44394 | 7.12485 | 4598 ft | 223 kts | 268° |
| 2026-05-05 15:43 | 43.44789 | 7.10408 | 4488 ft | 230 kts | 293° |
| 2026-05-05 15:43 | 43.45528 | 7.08431 | 4360 ft | 234 kts | 295° |
| 2026-05-05 15:44 | 43.46352 | 7.06500 | 4231 ft | 236 kts | 306° |
| 2026-05-05 15:44 | 43.47433 | 7.04796 | 4108 ft | 235 kts | 309° |
| 2026-05-05 15:44 | 43.48492 | 7.03154 | 4015 ft | 221 kts | 309° |
| 2026-05-05 15:44 | 43.49574 | 7.01770 | 3964 ft | 209 kts | 329° |
| 2026-05-05 15:45 | 43.50983 | 7.01542 | 3807 ft | 209 kts | 15° |
| 2026-05-05 15:45 | 43.52194 | 7.02614 | 3591 ft | 210 kts | 42° |
| 2026-05-05 15:45 | 43.53278 | 7.03983 | 3317 ft | 212 kts | 44° |
| 2026-05-05 15:45 | 43.54327 | 7.05388 | 3033 ft | 208 kts | 45° |
| 2026-05-05 15:46 | 43.55340 | 7.06787 | 2754 ft | 205 kts | 45° |
| 2026-05-05 15:46 | 43.56339 | 7.08171 | 2485 ft | 202 kts | 46° |
| 2026-05-05 15:46 | 43.57306 | 7.09509 | 2218 ft | 191 kts | 46° |
| 2026-05-05 15:46 | 43.58211 | 7.10760 | 1970 ft | 179 kts | 46° |
| 2026-05-05 15:47 | 43.59070 | 7.11948 | 1733 ft | 170 kts | 45° |
| 2026-05-05 15:47 | 43.59604 | 7.12687 | 1613 ft | 159 kts | 46° |
| 2026-05-05 15:47 | 43.60619 | 7.14090 | 1308 ft | 153 kts | 46° |
| 2026-05-05 15:47 | 43.61353 | 7.15104 | 1082 ft | 142 kts | 47° |
| 2026-05-05 15:48 | 43.62023 | 7.16029 | 902 ft | 134 kts | 48° |
| 2026-05-05 15:48 | 43.62688 | 7.16952 | 715 ft | 142 kts | 47° |
| 2026-05-05 15:48 | 43.63389 | 7.17920 | 565 ft | 144 kts | 50° |
| 2026-05-05 15:48 | 43.64093 | 7.18900 | 387 ft | 143 kts | 50° |
| 2026-05-05 15:49 | 43.64779 | 7.19854 | 195 ft | 139 kts | 48° |
| 2026-05-05 15:49 | 43.65463 | 7.20790 | 25 ft | 134 kts | 46° |
| 2026-05-05 15:49 | 43.65999 | 7.21528 | 19 ft | 69 kts | 45° |
| 2026-05-05 15:49 | 43.66242 | 7.21861 | 21 ft | 32 kts | 42° |
| 2026-05-05 15:50 | 43.66405 | 7.22004 | 23 ft | 19 kts | 23° |
| 2026-05-05 15:50 | 43.66496 | 7.22052 | 20 ft | 7 kts | 17° |
| 2026-05-05 15:50 | 43.66545 | 7.22032 | 20 ft | 10 kts | 316° |
| 2026-05-05 15:50 | 43.66607 | 7.21951 | 20 ft | 13 kts | 316° |
| 2026-05-05 15:51 | 43.66642 | 7.21870 | 20 ft | 10 kts | 263° |
| 2026-05-05 15:51 | 43.66602 | 7.21795 | 20 ft | 10 kts | 225° |
| 2026-05-05 15:51 | 43.66555 | 7.21730 | 20 ft | 9 kts | 225° |
| 2026-05-05 15:51 | 43.66509 | 7.21667 | 20 ft | 9 kts | 224° |
| 2026-05-05 15:52 | 43.66464 | 7.21606 | 20 ft | 9 kts | 225° |
| 2026-05-05 15:52 | 43.66439 | 7.21572 | 20 ft | 3 kts | 228° |
| 2026-05-05 15:52 | 43.66442 | 7.21541 | 20 ft | 4 kts | 302° |
| 2026-05-05 15:52 | 43.66462 | 7.21512 | 20 ft | 4 kts | 315° |
| 2026-05-05 15:53 | 43.66473 | 7.21497 | 20 ft | 0 kts | 315° |